sensor_id;sensor_type;location;lat;lon;timestamp;temperature;humidity
18898;DHT22;9581;49.484;8.556;2024-02-26T00:00:11;10.40;99.90
18898;DHT22;9581;49.484;8.556;2024-02-26T00:02:39;10.40;99.90
18898;DHT22;9581;49.484;8.556;2024-02-26T00:05:07;10.30;99.90
18898;DHT22;9581;49.484;8.556;2024-02-26T00:07:34;10.30;99.90
18898;DHT22;9581;49.484;8.556;2024-02-26T00:10:01;10.30;99.90
18898;DHT22;9581;49.484;8.556;2024-02-26T00:12:28;10.40;99.90
18898;DHT22;9581;49.484;8.556;2024-02-26T00:14:54;10.30;99.90
18898;DHT22;9581;49.484;8.556;2024-02-26T00:17:23;10.20;99.90
18898;DHT22;9581;49.484;8.556;2024-02-26T00:19:51;10.20;99.90
18898;DHT22;9581;49.484;8.556;2024-02-26T00:22:18;10.30;99.90
18898;DHT22;9581;49.484;8.556;2024-02-26T00:24:45;10.30;99.90
18898;DHT22;9581;49.484;8.556;2024-02-26T00:27:12;10.20;99.90
18898;DHT22;9581;49.484;8.556;2024-02-26T00:29:38;10.20;99.90
18898;DHT22;9581;49.484;8.556;2024-02-26T00:32:05;10.30;99.90
18898;DHT22;9581;49.484;8.556;2024-02-26T00:34:32;10.40;99.90
18898;DHT22;9581;49.484;8.556;2024-02-26T00:37:01;10.40;99.90
18898;DHT22;9581;49.484;8.556;2024-02-26T00:39:28;10.40;99.90
18898;DHT22;9581;49.484;8.556;2024-02-26T00:41:55;10.30;99.90
18898;DHT22;9581;49.484;8.556;2024-02-26T00:44:22;10.20;99.90
18898;DHT22;9581;49.484;8.556;2024-02-26T00:46:49;10.20;99.90
18898;DHT22;9581;49.484;8.556;2024-02-26T00:49:15;10.00;99.90
18898;DHT22;9581;49.484;8.556;2024-02-26T00:51:42;9.90;99.90
18898;DHT22;9581;49.484;8.556;2024-02-26T00:54:10;10.00;99.90
18898;DHT22;9581;49.484;8.556;2024-02-26T00:56:37;9.90;99.90
18898;DHT22;9581;49.484;8.556;2024-02-26T00:59:04;9.90;99.90
18898;DHT22;9581;49.484;8.556;2024-02-26T01:01:31;9.80;99.90
18898;DHT22;9581;49.484;8.556;2024-02-26T01:03:58;9.90;99.90
18898;DHT22;9581;49.484;8.556;2024-02-26T01:06:25;9.90;99.90
18898;DHT22;9581;49.484;8.556;2024-02-26T01:08:51;9.90;99.90
18898;DHT22;9581;49.484;8.556;2024-02-26T01:11:19;9.90;99.90
18898;DHT22;9581;49.484;8.556;2024-02-26T01:13:46;9.80;99.90
18898;DHT22;9581;49.484;8.556;2024-02-26T01:16:13;9.80;99.90
18898;DHT22;9581;49.484;8.556;2024-02-26T01:18:40;9.80;99.90
18898;DHT22;9581;49.484;8.556;2024-02-26T01:21:06;9.80;99.90
18898;DHT22;9581;49.484;8.556;2024-02-26T01:23:34;9.80;99.90
18898;DHT22;9581;49.484;8.556;2024-02-26T01:26:01;9.70;99.90
18898;DHT22;9581;49.484;8.556;2024-02-26T01:28:31;9.80;99.90
18898;DHT22;9581;49.484;8.556;2024-02-26T01:30:58;9.70;99.90
18898;DHT22;9581;49.484;8.556;2024-02-26T01:33:25;9.70;99.90
18898;DHT22;9581;49.484;8.556;2024-02-26T01:35:52;9.60;99.90
18898;DHT22;9581;49.484;8.556;2024-02-26T01:38:19;9.70;99.90
18898;DHT22;9581;49.484;8.556;2024-02-26T01:40:46;9.60;99.90
18898;DHT22;9581;49.484;8.556;2024-02-26T01:43:12;9.60;99.90
18898;DHT22;9581;49.484;8.556;2024-02-26T01:45:41;9.70;99.90
18898;DHT22;9581;49.484;8.556;2024-02-26T01:48:07;9.60;99.90
18898;DHT22;9581;49.484;8.556;2024-02-26T01:50:36;9.60;99.90
18898;DHT22;9581;49.484;8.556;2024-02-26T01:53:03;9.60;99.90
18898;DHT22;9581;49.484;8.556;2024-02-26T01:55:31;9.50;99.90
18898;DHT22;9581;49.484;8.556;2024-02-26T01:57:58;9.50;99.90
18898;DHT22;9581;49.484;8.556;2024-02-26T02:00:25;9.40;99.90
18898;DHT22;9581;49.484;8.556;2024-02-26T02:02:54;9.50;99.90
18898;DHT22;9581;49.484;8.556;2024-02-26T02:05:22;9.40;99.90
18898;DHT22;9581;49.484;8.556;2024-02-26T02:07:50;9.40;99.90
18898;DHT22;9581;49.484;8.556;2024-02-26T02:10:17;9.40;99.90
18898;DHT22;9581;49.484;8.556;2024-02-26T02:12:48;9.40;99.90
18898;DHT22;9581;49.484;8.556;2024-02-26T02:15:15;9.20;99.90
18898;DHT22;9581;49.484;8.556;2024-02-26T02:17:42;9.20;99.90
18898;DHT22;9581;49.484;8.556;2024-02-26T02:20:15;9.20;99.90
18898;DHT22;9581;49.484;8.556;2024-02-26T02:22:44;9.00;99.90
18898;DHT22;9581;49.484;8.556;2024-02-26T02:25:10;9.00;99.90
18898;DHT22;9581;49.484;8.556;2024-02-26T02:27:37;8.90;99.90
18898;DHT22;9581;49.484;8.556;2024-02-26T02:30:05;9.00;99.90
18898;DHT22;9581;49.484;8.556;2024-02-26T02:32:32;8.90;99.90
18898;DHT22;9581;49.484;8.556;2024-02-26T02:34:59;8.90;99.90
18898;DHT22;9581;49.484;8.556;2024-02-26T02:37:26;9.00;99.90
18898;DHT22;9581;49.484;8.556;2024-02-26T02:39:54;8.80;99.90
18898;DHT22;9581;49.484;8.556;2024-02-26T02:42:23;8.70;99.90
18898;DHT22;9581;49.484;8.556;2024-02-26T02:44:50;8.80;99.90
18898;DHT22;9581;49.484;8.556;2024-02-26T02:47:16;8.70;99.90
18898;DHT22;9581;49.484;8.556;2024-02-26T02:49:43;8.80;99.90
18898;DHT22;9581;49.484;8.556;2024-02-26T02:52:10;8.70;99.90
18898;DHT22;9581;49.484;8.556;2024-02-26T02:54:37;8.60;99.90
18898;DHT22;9581;49.484;8.556;2024-02-26T02:57:07;8.60;99.90
18898;DHT22;9581;49.484;8.556;2024-02-26T02:59:34;8.70;99.90
18898;DHT22;9581;49.484;8.556;2024-02-26T03:02:00;8.70;99.90
18898;DHT22;9581;49.484;8.556;2024-02-26T03:04:27;8.60;99.90
18898;DHT22;9581;49.484;8.556;2024-02-26T03:06:54;8.60;99.90
18898;DHT22;9581;49.484;8.556;2024-02-26T03:09:21;8.60;99.90
18898;DHT22;9581;49.484;8.556;2024-02-26T03:11:49;8.60;99.90
18898;DHT22;9581;49.484;8.556;2024-02-26T03:14:17;8.70;99.90
18898;DHT22;9581;49.484;8.556;2024-02-26T03:16:43;8.60;99.90
18898;DHT22;9581;49.484;8.556;2024-02-26T03:19:10;8.60;99.90
18898;DHT22;9581;49.484;8.556;2024-02-26T03:21:37;8.50;99.90
18898;DHT22;9581;49.484;8.556;2024-02-26T03:24:05;8.50;99.90
18898;DHT22;9581;49.484;8.556;2024-02-26T03:26:31;8.50;99.90
18898;DHT22;9581;49.484;8.556;2024-02-26T03:28:58;8.50;99.90
18898;DHT22;9581;49.484;8.556;2024-02-26T03:31:27;8.50;99.90
18898;DHT22;9581;49.484;8.556;2024-02-26T03:33:54;8.40;99.90
18898;DHT22;9581;49.484;8.556;2024-02-26T03:36:21;8.30;99.90
18898;DHT22;9581;49.484;8.556;2024-02-26T03:38:48;8.40;99.90
18898;DHT22;9581;49.484;8.556;2024-02-26T03:41:14;8.40;99.90
18898;DHT22;9581;49.484;8.556;2024-02-26T03:43:41;8.40;99.90
18898;DHT22;9581;49.484;8.556;2024-02-26T03:46:30;8.50;99.90
18898;DHT22;9581;49.484;8.556;2024-02-26T03:48:57;8.20;99.90
18898;DHT22;9581;49.484;8.556;2024-02-26T03:51:23;8.10;99.90
18898;DHT22;9581;49.484;8.556;2024-02-26T03:53:50;8.10;99.90
18898;DHT22;9581;49.484;8.556;2024-02-26T03:56:17;8.10;99.90
18898;DHT22;9581;49.484;8.556;2024-02-26T03:58:44;8.30;99.90
18898;DHT22;9581;49.484;8.556;2024-02-26T04:01:10;8.20;99.90
18898;DHT22;9581;49.484;8.556;2024-02-26T04:03:38;8.20;99.90
18898;DHT22;9581;49.484;8.556;2024-02-26T04:06:08;8.10;99.90
18898;DHT22;9581;49.484;8.556;2024-02-26T04:08:35;8.10;99.90
18898;DHT22;9581;49.484;8.556;2024-02-26T04:11:02;8.10;99.90
18898;DHT22;9581;49.484;8.556;2024-02-26T04:13:32;8.10;99.90
18898;DHT22;9581;49.484;8.556;2024-02-26T04:15:59;8.20;99.90
18898;DHT22;9581;49.484;8.556;2024-02-26T04:18:27;8.40;99.90
18898;DHT22;9581;49.484;8.556;2024-02-26T04:20:55;8.50;99.90
18898;DHT22;9581;49.484;8.556;2024-02-26T04:23:22;8.50;99.90
18898;DHT22;9581;49.484;8.556;2024-02-26T04:25:49;8.50;99.90
18898;DHT22;9581;49.484;8.556;2024-02-26T04:28:15;8.60;99.90
18898;DHT22;9581;49.484;8.556;2024-02-26T04:30:42;8.50;99.90
18898;DHT22;9581;49.484;8.556;2024-02-26T04:33:09;8.50;99.90
18898;DHT22;9581;49.484;8.556;2024-02-26T04:35:36;8.60;99.90
18898;DHT22;9581;49.484;8.556;2024-02-26T04:38:04;8.50;99.90
18898;DHT22;9581;49.484;8.556;2024-02-26T04:40:30;8.50;99.90
18898;DHT22;9581;49.484;8.556;2024-02-26T04:42:57;8.50;99.90
18898;DHT22;9581;49.484;8.556;2024-02-26T04:45:24;8.50;99.90
18898;DHT22;9581;49.484;8.556;2024-02-26T04:47:51;8.50;99.90
18898;DHT22;9581;49.484;8.556;2024-02-26T04:50:17;8.50;99.90
18898;DHT22;9581;49.484;8.556;2024-02-26T04:52:43;8.60;99.90
18898;DHT22;9581;49.484;8.556;2024-02-26T04:55:11;8.60;99.90
18898;DHT22;9581;49.484;8.556;2024-02-26T04:57:38;8.50;99.90
18898;DHT22;9581;49.484;8.556;2024-02-26T05:00:05;8.50;99.90
18898;DHT22;9581;49.484;8.556;2024-02-26T05:02:32;8.60;99.90
18898;DHT22;9581;49.484;8.556;2024-02-26T05:05:04;8.60;99.90
18898;DHT22;9581;49.484;8.556;2024-02-26T05:07:30;8.60;99.90
18898;DHT22;9581;49.484;8.556;2024-02-26T05:09:57;8.60;99.90
18898;DHT22;9581;49.484;8.556;2024-02-26T05:12:26;8.40;99.90
18898;DHT22;9581;49.484;8.556;2024-02-26T05:14:52;8.40;99.90
18898;DHT22;9581;49.484;8.556;2024-02-26T05:17:19;8.40;99.90
18898;DHT22;9581;49.484;8.556;2024-02-26T05:19:46;8.30;99.90
18898;DHT22;9581;49.484;8.556;2024-02-26T05:22:12;8.30;99.90
18898;DHT22;9581;49.484;8.556;2024-02-26T05:24:39;8.20;99.90
18898;DHT22;9581;49.484;8.556;2024-02-26T05:27:06;8.30;99.90
18898;DHT22;9581;49.484;8.556;2024-02-26T05:29:34;8.30;99.90
18898;DHT22;9581;49.484;8.556;2024-02-26T05:32:01;8.40;99.90
18898;DHT22;9581;49.484;8.556;2024-02-26T05:34:28;8.30;99.90
18898;DHT22;9581;49.484;8.556;2024-02-26T05:36:55;8.30;99.90
18898;DHT22;9581;49.484;8.556;2024-02-26T05:39:22;8.30;99.90
18898;DHT22;9581;49.484;8.556;2024-02-26T05:41:49;8.40;99.90
18898;DHT22;9581;49.484;8.556;2024-02-26T05:44:15;8.30;99.90
18898;DHT22;9581;49.484;8.556;2024-02-26T05:46:43;8.30;99.90
18898;DHT22;9581;49.484;8.556;2024-02-26T05:49:10;8.40;99.90
18898;DHT22;9581;49.484;8.556;2024-02-26T05:51:37;8.40;99.90
18898;DHT22;9581;49.484;8.556;2024-02-26T05:54:03;8.30;99.90
18898;DHT22;9581;49.484;8.556;2024-02-26T05:56:30;8.30;99.90
18898;DHT22;9581;49.484;8.556;2024-02-26T05:58:57;8.30;99.90
18898;DHT22;9581;49.484;8.556;2024-02-26T06:01:23;8.30;99.90
18898;DHT22;9581;49.484;8.556;2024-02-26T06:03:52;8.40;99.90
18898;DHT22;9581;49.484;8.556;2024-02-26T06:06:19;8.40;99.90
18898;DHT22;9581;49.484;8.556;2024-02-26T06:08:48;8.40;99.90
18898;DHT22;9581;49.484;8.556;2024-02-26T06:11:14;8.40;99.90
18898;DHT22;9581;49.484;8.556;2024-02-26T06:13:41;8.40;99.90
18898;DHT22;9581;49.484;8.556;2024-02-26T06:16:08;8.30;99.90
18898;DHT22;9581;49.484;8.556;2024-02-26T06:18:35;8.30;99.90
18898;DHT22;9581;49.484;8.556;2024-02-26T06:21:03;8.30;99.90
18898;DHT22;9581;49.484;8.556;2024-02-26T06:23:30;8.30;99.90
18898;DHT22;9581;49.484;8.556;2024-02-26T06:25:57;8.40;99.90
18898;DHT22;9581;49.484;8.556;2024-02-26T06:28:23;8.30;99.90
18898;DHT22;9581;49.484;8.556;2024-02-26T06:30:50;8.20;99.90
18898;DHT22;9581;49.484;8.556;2024-02-26T06:33:18;8.20;99.90
18898;DHT22;9581;49.484;8.556;2024-02-26T06:35:44;8.20;99.90
18898;DHT22;9581;49.484;8.556;2024-02-26T06:38:12;8.20;99.90
18898;DHT22;9581;49.484;8.556;2024-02-26T06:40:39;8.20;99.90
18898;DHT22;9581;49.484;8.556;2024-02-26T06:43:06;8.20;99.90
18898;DHT22;9581;49.484;8.556;2024-02-26T06:45:32;8.20;99.90
18898;DHT22;9581;49.484;8.556;2024-02-26T06:47:59;8.20;99.90
18898;DHT22;9581;49.484;8.556;2024-02-26T06:50:26;8.30;99.90
18898;DHT22;9581;49.484;8.556;2024-02-26T06:52:53;8.20;99.90
18898;DHT22;9581;49.484;8.556;2024-02-26T06:55:21;8.30;99.90
18898;DHT22;9581;49.484;8.556;2024-02-26T06:57:48;8.20;99.90
18898;DHT22;9581;49.484;8.556;2024-02-26T07:00:15;8.20;99.90
18898;DHT22;9581;49.484;8.556;2024-02-26T07:02:42;8.20;99.90
18898;DHT22;9581;49.484;8.556;2024-02-26T07:05:09;8.30;99.90
18898;DHT22;9581;49.484;8.556;2024-02-26T07:07:36;8.30;99.90
18898;DHT22;9581;49.484;8.556;2024-02-26T07:10:03;8.40;99.90
18898;DHT22;9581;49.484;8.556;2024-02-26T07:12:32;8.70;99.90
18898;DHT22;9581;49.484;8.556;2024-02-26T07:14:59;8.50;99.90
18898;DHT22;9581;49.484;8.556;2024-02-26T07:17:26;8.50;99.90
18898;DHT22;9581;49.484;8.556;2024-02-26T07:19:52;8.50;99.90
18898;DHT22;9581;49.484;8.556;2024-02-26T07:22:21;8.50;99.90
18898;DHT22;9581;49.484;8.556;2024-02-26T07:24:48;8.40;99.90
18898;DHT22;9581;49.484;8.556;2024-02-26T07:27:15;8.50;99.90
18898;DHT22;9581;49.484;8.556;2024-02-26T07:29:44;8.50;99.90
18898;DHT22;9581;49.484;8.556;2024-02-26T07:32:12;8.50;99.90
18898;DHT22;9581;49.484;8.556;2024-02-26T07:34:38;8.50;99.90
18898;DHT22;9581;49.484;8.556;2024-02-26T07:37:07;8.40;99.90
18898;DHT22;9581;49.484;8.556;2024-02-26T07:39:33;8.50;99.90
18898;DHT22;9581;49.484;8.556;2024-02-26T07:42:00;8.50;99.90
18898;DHT22;9581;49.484;8.556;2024-02-26T07:44:27;8.50;99.90
18898;DHT22;9581;49.484;8.556;2024-02-26T07:46:55;8.40;99.90
18898;DHT22;9581;49.484;8.556;2024-02-26T07:49:22;8.60;99.90
18898;DHT22;9581;49.484;8.556;2024-02-26T07:51:48;8.60;99.90
18898;DHT22;9581;49.484;8.556;2024-02-26T07:54:15;8.60;99.90
18898;DHT22;9581;49.484;8.556;2024-02-26T07:56:42;8.60;99.90
18898;DHT22;9581;49.484;8.556;2024-02-26T07:59:09;8.60;99.90
18898;DHT22;9581;49.484;8.556;2024-02-26T08:01:36;8.70;99.90
18898;DHT22;9581;49.484;8.556;2024-02-26T08:04:05;8.80;99.90
18898;DHT22;9581;49.484;8.556;2024-02-26T08:06:32;8.80;99.90
18898;DHT22;9581;49.484;8.556;2024-02-26T08:08:59;8.90;99.90
18898;DHT22;9581;49.484;8.556;2024-02-26T08:11:25;9.10;99.90
18898;DHT22;9581;49.484;8.556;2024-02-26T08:13:53;9.20;99.90
18898;DHT22;9581;49.484;8.556;2024-02-26T08:16:20;9.40;99.90
18898;DHT22;9581;49.484;8.556;2024-02-26T08:18:47;9.40;99.90
18898;DHT22;9581;49.484;8.556;2024-02-26T08:21:15;9.60;99.90
18898;DHT22;9581;49.484;8.556;2024-02-26T08:23:43;9.60;99.90
18898;DHT22;9581;49.484;8.556;2024-02-26T08:26:10;9.70;99.90
18898;DHT22;9581;49.484;8.556;2024-02-26T08:28:38;9.60;99.90
18898;DHT22;9581;49.484;8.556;2024-02-26T08:31:05;9.40;99.90
18898;DHT22;9581;49.484;8.556;2024-02-26T08:33:32;9.60;99.90
18898;DHT22;9581;49.484;8.556;2024-02-26T08:35:59;9.70;99.90
18898;DHT22;9581;49.484;8.556;2024-02-26T08:38:27;9.90;99.90
18898;DHT22;9581;49.484;8.556;2024-02-26T08:40:54;9.90;99.90
18898;DHT22;9581;49.484;8.556;2024-02-26T08:43:20;9.80;99.90
18898;DHT22;9581;49.484;8.556;2024-02-26T08:45:47;9.90;99.90
18898;DHT22;9581;49.484;8.556;2024-02-26T08:48:14;10.20;99.90
18898;DHT22;9581;49.484;8.556;2024-02-26T08:50:41;10.20;99.90
18898;DHT22;9581;49.484;8.556;2024-02-26T08:53:06;10.60;99.90
18898;DHT22;9581;49.484;8.556;2024-02-26T08:55:34;10.70;99.90
18898;DHT22;9581;49.484;8.556;2024-02-26T08:58:01;10.70;99.90
18898;DHT22;9581;49.484;8.556;2024-02-26T09:00:28;10.60;99.90
18898;DHT22;9581;49.484;8.556;2024-02-26T09:02:55;10.30;99.90
18898;DHT22;9581;49.484;8.556;2024-02-26T09:05:21;10.00;99.90
18898;DHT22;9581;49.484;8.556;2024-02-26T09:07:48;9.90;99.90
18898;DHT22;9581;49.484;8.556;2024-02-26T09:10:17;9.90;99.90
18898;DHT22;9581;49.484;8.556;2024-02-26T09:12:45;9.90;99.90
18898;DHT22;9581;49.484;8.556;2024-02-26T09:15:13;9.90;99.90
18898;DHT22;9581;49.484;8.556;2024-02-26T09:17:39;9.90;99.90
18898;DHT22;9581;49.484;8.556;2024-02-26T09:20:07;10.10;99.90
18898;DHT22;9581;49.484;8.556;2024-02-26T09:22:34;10.00;99.90
18898;DHT22;9581;49.484;8.556;2024-02-26T09:25:04;10.00;99.90
18898;DHT22;9581;49.484;8.556;2024-02-26T09:27:30;10.20;99.90
18898;DHT22;9581;49.484;8.556;2024-02-26T09:29:58;10.10;99.90
18898;DHT22;9581;49.484;8.556;2024-02-26T09:32:25;10.10;99.90
18898;DHT22;9581;49.484;8.556;2024-02-26T09:34:52;10.20;99.90
18898;DHT22;9581;49.484;8.556;2024-02-26T09:37:18;10.00;99.90
18898;DHT22;9581;49.484;8.556;2024-02-26T09:39:45;10.20;99.90
18898;DHT22;9581;49.484;8.556;2024-02-26T09:42:13;10.20;99.90
18898;DHT22;9581;49.484;8.556;2024-02-26T09:44:40;10.50;99.90
18898;DHT22;9581;49.484;8.556;2024-02-26T09:47:11;10.70;99.90
18898;DHT22;9581;49.484;8.556;2024-02-26T09:49:39;11.00;99.90
18898;DHT22;9581;49.484;8.556;2024-02-26T09:52:06;11.20;99.90
18898;DHT22;9581;49.484;8.556;2024-02-26T09:54:34;11.50;99.90
18898;DHT22;9581;49.484;8.556;2024-02-26T09:57:03;11.80;99.90
18898;DHT22;9581;49.484;8.556;2024-02-26T09:59:36;11.80;99.90
18898;DHT22;9581;49.484;8.556;2024-02-26T10:02:06;11.70;99.90
18898;DHT22;9581;49.484;8.556;2024-02-26T10:04:36;11.60;99.90
18898;DHT22;9581;49.484;8.556;2024-02-26T10:07:04;10.90;99.90
18898;DHT22;9581;49.484;8.556;2024-02-26T10:09:32;11.30;99.90
18898;DHT22;9581;49.484;8.556;2024-02-26T10:11:59;11.40;99.90
18898;DHT22;9581;49.484;8.556;2024-02-26T10:14:25;11.70;99.90
18898;DHT22;9581;49.484;8.556;2024-02-26T10:16:52;12.30;99.90
18898;DHT22;9581;49.484;8.556;2024-02-26T10:19:26;12.20;99.90
18898;DHT22;9581;49.484;8.556;2024-02-26T10:21:56;12.90;99.90
18898;DHT22;9581;49.484;8.556;2024-02-26T10:24:23;13.10;99.90
18898;DHT22;9581;49.484;8.556;2024-02-26T10:26:51;14.20;99.90
18898;DHT22;9581;49.484;8.556;2024-02-26T10:29:18;14.00;99.90
18898;DHT22;9581;49.484;8.556;2024-02-26T10:31:46;13.10;99.90
18898;DHT22;9581;49.484;8.556;2024-02-26T10:34:14;13.40;99.90
18898;DHT22;9581;49.484;8.556;2024-02-26T10:36:41;15.20;99.90
18898;DHT22;9581;49.484;8.556;2024-02-26T10:39:12;16.60;99.90
18898;DHT22;9581;49.484;8.556;2024-02-26T10:41:41;17.30;99.90
18898;DHT22;9581;49.484;8.556;2024-02-26T10:44:09;16.30;99.90
18898;DHT22;9581;49.484;8.556;2024-02-26T10:46:38;17.10;99.90
18898;DHT22;9581;49.484;8.556;2024-02-26T10:49:05;18.10;99.90
18898;DHT22;9581;49.484;8.556;2024-02-26T10:51:34;18.70;99.90
18898;DHT22;9581;49.484;8.556;2024-02-26T10:54:04;21.40;99.90
18898;DHT22;9581;49.484;8.556;2024-02-26T10:56:34;23.20;99.90
18898;DHT22;9581;49.484;8.556;2024-02-26T10:59:04;24.00;99.80
18898;DHT22;9581;49.484;8.556;2024-02-26T11:01:32;24.40;96.60
18898;DHT22;9581;49.484;8.556;2024-02-26T11:04:03;24.80;94.30
18898;DHT22;9581;49.484;8.556;2024-02-26T11:06:31;22.30;95.60
18898;DHT22;9581;49.484;8.556;2024-02-26T11:09:01;20.50;95.90
18898;DHT22;9581;49.484;8.556;2024-02-26T11:11:29;18.20;97.30
18898;DHT22;9581;49.484;8.556;2024-02-26T11:13:59;17.70;99.60
18898;DHT22;9581;49.484;8.556;2024-02-26T11:16:27;16.70;99.90
18898;DHT22;9581;49.484;8.556;2024-02-26T11:18:55;16.10;99.90
18898;DHT22;9581;49.484;8.556;2024-02-26T11:21:24;15.40;99.90
18898;DHT22;9581;49.484;8.556;2024-02-26T11:23:55;15.40;99.90
18898;DHT22;9581;49.484;8.556;2024-02-26T11:26:23;15.50;99.90
18898;DHT22;9581;49.484;8.556;2024-02-26T11:28:52;16.40;99.90
18898;DHT22;9581;49.484;8.556;2024-02-26T11:31:24;16.50;99.90
18898;DHT22;9581;49.484;8.556;2024-02-26T11:33:53;16.70;99.90
18898;DHT22;9581;49.484;8.556;2024-02-26T11:36:20;16.20;99.90
18898;DHT22;9581;49.484;8.556;2024-02-26T11:38:47;16.60;99.90
18898;DHT22;9581;49.484;8.556;2024-02-26T11:41:17;15.50;99.90
18898;DHT22;9581;49.484;8.556;2024-02-26T11:43:51;15.40;99.90
18898;DHT22;9581;49.484;8.556;2024-02-26T11:46:29;15.90;99.90
18898;DHT22;9581;49.484;8.556;2024-02-26T11:48:58;15.70;99.90
18898;DHT22;9581;49.484;8.556;2024-02-26T11:51:26;16.00;99.90
18898;DHT22;9581;49.484;8.556;2024-02-26T11:53:53;16.10;99.90
18898;DHT22;9581;49.484;8.556;2024-02-26T11:56:23;16.00;99.90
18898;DHT22;9581;49.484;8.556;2024-02-26T11:58:56;16.00;99.90
18898;DHT22;9581;49.484;8.556;2024-02-26T12:01:40;16.50;99.90
18898;DHT22;9581;49.484;8.556;2024-02-26T12:04:11;15.70;99.90
18898;DHT22;9581;49.484;8.556;2024-02-26T12:06:42;15.20;99.90
18898;DHT22;9581;49.484;8.556;2024-02-26T12:09:10;15.30;99.90
18898;DHT22;9581;49.484;8.556;2024-02-26T12:11:38;15.50;99.90
18898;DHT22;9581;49.484;8.556;2024-02-26T12:14:07;16.50;99.90
18898;DHT22;9581;49.484;8.556;2024-02-26T12:16:37;16.90;99.90
18898;DHT22;9581;49.484;8.556;2024-02-26T12:19:05;17.50;99.90
18898;DHT22;9581;49.484;8.556;2024-02-26T12:21:34;17.30;99.90
18898;DHT22;9581;49.484;8.556;2024-02-26T12:24:11;18.30;99.90
18898;DHT22;9581;49.484;8.556;2024-02-26T12:26:38;18.10;99.90
18898;DHT22;9581;49.484;8.556;2024-02-26T12:29:07;17.80;99.90
18898;DHT22;9581;49.484;8.556;2024-02-26T12:31:34;17.50;99.90
18898;DHT22;9581;49.484;8.556;2024-02-26T12:34:04;16.10;99.90
18898;DHT22;9581;49.484;8.556;2024-02-26T12:36:32;15.90;99.90
18898;DHT22;9581;49.484;8.556;2024-02-26T12:39:00;15.10;99.90
18898;DHT22;9581;49.484;8.556;2024-02-26T12:41:27;15.60;99.90
18898;DHT22;9581;49.484;8.556;2024-02-26T12:43:55;15.90;99.90
18898;DHT22;9581;49.484;8.556;2024-02-26T12:46:22;17.00;99.90
18898;DHT22;9581;49.484;8.556;2024-02-26T12:48:49;17.20;99.90
18898;DHT22;9581;49.484;8.556;2024-02-26T12:51:17;17.70;99.90
18898;DHT22;9581;49.484;8.556;2024-02-26T12:53:45;17.60;99.90
18898;DHT22;9581;49.484;8.556;2024-02-26T12:56:18;16.90;99.90
18898;DHT22;9581;49.484;8.556;2024-02-26T12:58:45;16.30;99.90
18898;DHT22;9581;49.484;8.556;2024-02-26T13:01:15;16.20;99.90
18898;DHT22;9581;49.484;8.556;2024-02-26T13:03:43;16.40;99.90
18898;DHT22;9581;49.484;8.556;2024-02-26T13:06:10;16.90;99.90
18898;DHT22;9581;49.484;8.556;2024-02-26T13:08:39;16.70;99.90
18898;DHT22;9581;49.484;8.556;2024-02-26T13:11:06;17.00;99.90
18898;DHT22;9581;49.484;8.556;2024-02-26T13:13:32;17.10;99.90
18898;DHT22;9581;49.484;8.556;2024-02-26T13:16:03;17.60;99.90
18898;DHT22;9581;49.484;8.556;2024-02-26T13:18:32;17.80;99.90
18898;DHT22;9581;49.484;8.556;2024-02-26T13:21:09;17.40;99.90
18898;DHT22;9581;49.484;8.556;2024-02-26T13:23:38;16.30;99.90
18898;DHT22;9581;49.484;8.556;2024-02-26T13:26:05;16.70;99.90
18898;DHT22;9581;49.484;8.556;2024-02-26T13:28:32;16.50;99.90
18898;DHT22;9581;49.484;8.556;2024-02-26T13:30:59;16.20;99.90
18898;DHT22;9581;49.484;8.556;2024-02-26T13:33:28;16.10;99.90
18898;DHT22;9581;49.484;8.556;2024-02-26T13:35:55;16.60;99.90
18898;DHT22;9581;49.484;8.556;2024-02-26T13:38:22;16.50;99.90
18898;DHT22;9581;49.484;8.556;2024-02-26T13:40:51;16.60;99.90
18898;DHT22;9581;49.484;8.556;2024-02-26T13:43:18;16.90;99.90
18898;DHT22;9581;49.484;8.556;2024-02-26T13:45:45;16.80;99.90
18898;DHT22;9581;49.484;8.556;2024-02-26T13:48:13;16.30;99.90
18898;DHT22;9581;49.484;8.556;2024-02-26T13:50:40;16.10;99.90
18898;DHT22;9581;49.484;8.556;2024-02-26T13:53:08;15.90;99.90
18898;DHT22;9581;49.484;8.556;2024-02-26T13:55:36;16.40;99.90
18898;DHT22;9581;49.484;8.556;2024-02-26T13:58:04;16.60;99.90
18898;DHT22;9581;49.484;8.556;2024-02-26T14:00:32;16.60;99.90
18898;DHT22;9581;49.484;8.556;2024-02-26T14:03:00;16.60;99.90
18898;DHT22;9581;49.484;8.556;2024-02-26T14:05:26;16.60;99.90
18898;DHT22;9581;49.484;8.556;2024-02-26T14:07:53;16.70;99.90
18898;DHT22;9581;49.484;8.556;2024-02-26T14:10:20;16.90;99.90
18898;DHT22;9581;49.484;8.556;2024-02-26T14:12:47;16.80;99.90
18898;DHT22;9581;49.484;8.556;2024-02-26T14:15:15;16.80;99.90
18898;DHT22;9581;49.484;8.556;2024-02-26T14:17:42;16.40;99.90
18898;DHT22;9581;49.484;8.556;2024-02-26T14:20:10;16.30;99.90
18898;DHT22;9581;49.484;8.556;2024-02-26T14:22:37;16.70;99.90
18898;DHT22;9581;49.484;8.556;2024-02-26T14:25:04;16.90;99.90
18898;DHT22;9581;49.484;8.556;2024-02-26T14:27:31;16.50;99.90
18898;DHT22;9581;49.484;8.556;2024-02-26T14:29:57;16.40;99.90
18898;DHT22;9581;49.484;8.556;2024-02-26T14:32:25;16.20;99.90
18898;DHT22;9581;49.484;8.556;2024-02-26T14:34:53;16.20;99.90
18898;DHT22;9581;49.484;8.556;2024-02-26T14:37:20;16.20;99.90
18898;DHT22;9581;49.484;8.556;2024-02-26T14:39:47;16.40;99.90
18898;DHT22;9581;49.484;8.556;2024-02-26T14:42:17;16.00;99.90
18898;DHT22;9581;49.484;8.556;2024-02-26T14:44:43;15.80;99.90
18898;DHT22;9581;49.484;8.556;2024-02-26T14:47:13;15.90;99.90
18898;DHT22;9581;49.484;8.556;2024-02-26T14:49:41;15.50;99.90
18898;DHT22;9581;49.484;8.556;2024-02-26T14:52:08;15.60;99.90
18898;DHT22;9581;49.484;8.556;2024-02-26T14:54:34;15.60;99.90
18898;DHT22;9581;49.484;8.556;2024-02-26T14:57:04;15.50;99.90
18898;DHT22;9581;49.484;8.556;2024-02-26T14:59:32;15.80;99.90
18898;DHT22;9581;49.484;8.556;2024-02-26T15:01:59;15.60;99.90
18898;DHT22;9581;49.484;8.556;2024-02-26T15:04:26;15.50;99.90
18898;DHT22;9581;49.484;8.556;2024-02-26T15:06:54;15.50;99.90
18898;DHT22;9581;49.484;8.556;2024-02-26T15:09:21;15.50;99.90
18898;DHT22;9581;49.484;8.556;2024-02-26T15:11:48;15.50;99.90
18898;DHT22;9581;49.484;8.556;2024-02-26T15:14:14;15.50;99.90
18898;DHT22;9581;49.484;8.556;2024-02-26T15:16:41;15.30;99.90
18898;DHT22;9581;49.484;8.556;2024-02-26T15:19:09;15.90;99.90
18898;DHT22;9581;49.484;8.556;2024-02-26T15:21:42;15.80;99.90
18898;DHT22;9581;49.484;8.556;2024-02-26T15:24:10;15.70;99.90
18898;DHT22;9581;49.484;8.556;2024-02-26T15:26:37;15.20;99.90
18898;DHT22;9581;49.484;8.556;2024-02-26T15:29:05;15.00;99.90
18898;DHT22;9581;49.484;8.556;2024-02-26T15:31:34;14.90;99.90
18898;DHT22;9581;49.484;8.556;2024-02-26T15:34:01;14.80;99.90
18898;DHT22;9581;49.484;8.556;2024-02-26T15:36:27;14.60;99.90
18898;DHT22;9581;49.484;8.556;2024-02-26T15:38:54;14.70;99.90
18898;DHT22;9581;49.484;8.556;2024-02-26T15:41:24;14.50;99.90
18898;DHT22;9581;49.484;8.556;2024-02-26T15:43:50;14.30;99.90
18898;DHT22;9581;49.484;8.556;2024-02-26T15:46:17;14.40;99.90
18898;DHT22;9581;49.484;8.556;2024-02-26T15:48:44;14.40;99.90
18898;DHT22;9581;49.484;8.556;2024-02-26T15:51:18;14.40;99.90
18898;DHT22;9581;49.484;8.556;2024-02-26T15:53:46;14.30;99.90
18898;DHT22;9581;49.484;8.556;2024-02-26T15:56:13;14.20;99.90